Time;durP1;ratioP1;P1;durP2;ratioP2;P2;SDS_P1;SDS_P2;PMS_P1;PMS_P2;Temp;Humidity;BMP_temperature;BMP_pressure;BME280_temperature;BME280_humidity;BME280_pressure;Samples;Min_cycle;Max_cycle;Signal;HPM_P1;HPM_P2
2022/07/24 00:01:47;;;;;;;16.08;11.60;;;;;;;;;;8395545;28;20101;-89
2022/07/24 00:05:50;;;;;;;15.02;10.95;;;;;;;;;;8403227;28;20072;-86
2022/07/24 00:09:53;;;;;;;16.30;12.43;;;;;;;;;;8384598;28;20044;-87
2022/07/24 00:13:57;;;;;;;16.08;12.18;;;;;;;;;;8387832;28;20059;-86
2022/07/24 00:18:00;;;;;;;16.50;11.82;;;;;;;;;;8395122;28;20047;-87
2022/07/24 00:22:03;;;;;;;15.65;11.75;;;;;;;;;;8392698;28;20074;-87
2022/07/24 00:26:06;;;;;;;16.38;12.25;;;;;;;;;;8396727;28;20139;-88
2022/07/24 00:30:12;;;;;;;17.35;11.65;;;;;;;;;;8388212;28;20144;-87
2022/07/24 00:34:15;;;;;;;16.92;11.90;;;;;;;;;;8390682;28;20044;-86
2022/07/24 00:38:17;;;;;;;19.55;13.63;;;;;;;;;;8392455;28;20037;-85
2022/07/24 00:42:20;;;;;;;20.30;15.02;;;;;;;;;;8389892;28;20040;-85
2022/07/24 00:46:24;;;;;;;20.08;15.15;;;;;;;;;;8388908;28;20040;-87
2022/07/24 00:50:27;;;;;;;24.17;16.35;;;;;;;;;;8395310;28;20048;-87
2022/07/24 00:54:30;;;;;;;24.10;16.83;;;;;;;;;;8394514;28;20068;-87
2022/07/24 00:58:33;;;;;;;28.02;18.42;;;;;;;;;;8395352;28;20047;-87
2022/07/24 01:02:41;;;;;;;29.48;18.55;;;;;;;;;;8395681;28;20477;-87
2022/07/24 01:06:44;;;;;;;31.38;19.30;;;;;;;;;;8390417;28;20188;-88
2022/07/24 01:10:47;;;;;;;34.10;20.77;;;;;;;;;;8386587;28;20127;-85
2022/07/24 01:14:50;;;;;;;41.30;23.13;;;;;;;;;;8393307;28;20139;-84
2022/07/24 01:18:54;;;;;;;38.25;21.45;;;;;;;;;;8388176;28;20044;-85
2022/07/24 01:22:58;;;;;;;32.60;21.77;;;;;;;;;;8382536;28;20047;-85
2022/07/24 01:27:01;;;;;;;35.83;21.20;;;;;;;;;;8394631;28;20044;-85
2022/07/24 01:31:04;;;;;;;33.72;21.27;;;;;;;;;;8393696;28;20094;-86
2022/07/24 01:35:07;;;;;;;30.40;20.83;;;;;;;;;;8394543;28;20115;-85
2022/07/24 01:39:12;;;;;;;32.00;20.65;;;;;;;;;;8395444;28;20044;-85
2022/07/24 01:43:14;;;;;;;27.48;20.00;;;;;;;;;;8393431;28;20048;-86
2022/07/24 01:47:17;;;;;;;32.15;21.83;;;;;;;;;;8393709;28;20041;-86
2022/07/24 01:51:20;;;;;;;33.30;22.02;;;;;;;;;;8388972;28;20076;-85
2022/07/24 01:55:24;;;;;;;35.35;21.38;;;;;;;;;;8386238;28;20135;-86
2022/07/24 01:59:26;;;;;;;36.95;20.15;;;;;;;;;;8399862;28;20047;-85
2022/07/24 02:03:29;;;;;;;26.80;19.33;;;;;;;;;;8393986;28;20442;-85
2022/07/24 02:07:32;;;;;;;27.00;18.48;;;;;;;;;;8400935;28;20044;-86
2022/07/24 02:11:36;;;;;;;25.35;16.73;;;;;;;;;;8395794;28;20470;-86
2022/07/24 02:15:39;;;;;;;20.63;14.88;;;;;;;;;;8393929;28;20493;-83
2022/07/24 02:19:41;;;;;;;21.80;13.90;;;;;;;;;;8386924;28;20047;-85
2022/07/24 02:23:44;;;;;;;19.10;13.43;;;;;;;;;;8400259;28;20075;-85
2022/07/24 02:27:49;;;;;;;17.40;13.18;;;;;;;;;;8399002;28;20045;-85
2022/07/24 02:31:51;;;;;;;18.35;13.02;;;;;;;;;;8399592;28;20532;-86
2022/07/24 02:35:54;;;;;;;18.02;12.90;;;;;;;;;;8399407;28;20105;-85
2022/07/24 02:39:56;;;;;;;16.25;12.25;;;;;;;;;;8400774;28;20063;-85
2022/07/24 02:44:01;;;;;;;16.70;12.25;;;;;;;;;;8398772;28;20063;-85
2022/07/24 02:48:03;;;;;;;16.33;12.50;;;;;;;;;;8399290;28;20041;-85
2022/07/24 02:52:06;;;;;;;17.05;12.15;;;;;;;;;;8398684;28;20090;-85
2022/07/24 02:56:09;;;;;;;23.02;13.15;;;;;;;;;;8391067;28;20033;-85
2022/07/24 03:00:16;;;;;;;17.67;11.77;;;;;;;;;;8398119;28;20047;-85
2022/07/24 03:04:19;;;;;;;16.00;12.00;;;;;;;;;;8398715;28;20052;-87
2022/07/24 03:08:22;;;;;;;18.70;11.52;;;;;;;;;;8398204;28;20138;-86
2022/07/24 03:12:24;;;;;;;17.25;12.32;;;;;;;;;;8403915;28;20076;-87
2022/07/24 03:16:28;;;;;;;17.20;12.57;;;;;;;;;;8402089;28;20445;-86
2022/07/24 03:20:31;;;;;;;16.48;11.48;;;;;;;;;;8400114;28;20060;-86
2022/07/24 03:24:34;;;;;;;14.68;11.38;;;;;;;;;;8400161;28;20045;-86
2022/07/24 03:28:36;;;;;;;17.13;11.55;;;;;;;;;;8399295;28;20055;-86
2022/07/24 03:32:41;;;;;;;17.50;11.65;;;;;;;;;;8399747;28;20397;-86
2022/07/24 03:36:43;;;;;;;14.20;11.25;;;;;;;;;;8387493;28;20041;-86
2022/07/24 03:40:46;;;;;;;16.00;11.07;;;;;;;;;;8394562;28;20498;-86
2022/07/24 03:44:49;;;;;;;14.88;10.80;;;;;;;;;;8386564;28;20094;-86
2022/07/24 03:48:53;;;;;;;18.27;10.63;;;;;;;;;;8397231;28;20049;-87
2022/07/24 03:52:56;;;;;;;14.50;10.57;;;;;;;;;;8397459;28;20044;-86
2022/07/24 03:56:58;;;;;;;13.57;9.65;;;;;;;;;;8397268;28;20052;-87
2022/07/24 04:01:01;;;;;;;12.45;8.90;;;;;;;;;;8397192;28;20052;-86
2022/07/24 04:05:08;;;;;;;10.60;8.10;;;;;;;;;;8388719;28;20144;-86
2022/07/24 04:09:10;;;;;;;8.57;6.32;;;;;;;;;;8391881;28;20037;-88
2022/07/24 04:13:13;;;;;;;10.15;6.20;;;;;;;;;;8395682;28;20075;-86
2022/07/24 04:17:16;;;;;;;9.95;6.20;;;;;;;;;;8390450;28;20157;-88
2022/07/24 04:21:20;;;;;;;7.80;5.00;;;;;;;;;;8379097;28;20118;-88
2022/07/24 04:25:24;;;;;;;7.47;4.65;;;;;;;;;;8394875;28;20056;-88
2022/07/24 04:29:27;;;;;;;7.65;4.13;;;;;;;;;;8386933;28;20076;-89
2022/07/24 04:33:29;;;;;;;9.85;4.80;;;;;;;;;;8394477;28;20488;-86
2022/07/24 04:37:34;;;;;;;7.50;4.47;;;;;;;;;;8384238;28;20375;-88
2022/07/24 04:41:37;;;;;;;6.82;4.13;;;;;;;;;;8379262;28;20473;-88
2022/07/24 04:45:40;;;;;;;8.95;4.13;;;;;;;;;;8379026;28;20500;-88
2022/07/24 04:49:43;;;;;;;6.72;4.28;;;;;;;;;;8369059;28;20093;-88
2022/07/24 04:53:47;;;;;;;7.25;4.60;;;;;;;;;;8383545;28;20067;-88
2022/07/24 04:57:50;;;;;;;10.75;4.53;;;;;;;;;;8384425;28;20068;-87
2022/07/24 05:01:53;;;;;;;7.78;4.50;;;;;;;;;;8395860;28;20127;-88
2022/07/24 05:05:56;;;;;;;6.13;4.20;;;;;;;;;;8366919;28;20052;-87
2022/07/24 05:10:01;;;;;;;9.68;4.20;;;;;;;;;;8393072;28;20041;-87
2022/07/24 05:14:04;;;;;;;6.13;4.07;;;;;;;;;;8391724;28;20063;-87
2022/07/24 05:18:08;;;;;;;8.73;3.92;;;;;;;;;;8385837;28;20044;-86
2022/07/24 05:22:12;;;;;;;6.90;3.72;;;;;;;;;;8392315;28;20040;-86
2022/07/24 05:26:17;;;;;;;6.63;3.95;;;;;;;;;;8391162;28;20044;-89
2022/07/24 05:30:20;;;;;;;5.80;3.67;;;;;;;;;;8396033;28;20135;-87
2022/07/24 05:34:24;;;;;;;7.43;3.55;;;;;;;;;;8392350;28;20037;-87
2022/07/24 05:38:27;;;;;;;7.40;3.50;;;;;;;;;;8394503;28;20087;-87
2022/07/24 05:42:33;;;;;;;4.97;3.30;;;;;;;;;;8392154;28;20043;-88
2022/07/24 05:46:37;;;;;;;5.75;3.00;;;;;;;;;;8383758;28;20040;-86
2022/07/24 05:50:40;;;;;;;4.65;2.90;;;;;;;;;;8379249;28;20090;-86
2022/07/24 05:54:44;;;;;;;4.20;2.97;;;;;;;;;;8380196;28;20107;-88
2022/07/24 05:58:50;;;;;;;5.50;2.85;;;;;;;;;;8384622;28;20087;-88
2022/07/24 06:02:54;;;;;;;5.20;3.00;;;;;;;;;;8389560;28;20041;-88
2022/07/24 06:06:58;;;;;;;5.70;3.03;;;;;;;;;;8392043;28;20068;-87
2022/07/24 06:11:01;;;;;;;5.03;2.90;;;;;;;;;;8394285;28;20051;-87
2022/07/24 06:15:08;;;;;;;5.53;3.13;;;;;;;;;;8386027;28;20090;-88
2022/07/24 06:19:11;;;;;;;5.82;2.75;;;;;;;;;;8378646;28;20052;-88
2022/07/24 06:23:14;;;;;;;6.32;2.80;;;;;;;;;;8378933;28;20049;-87
2022/07/24 06:27:18;;;;;;;4.88;2.92;;;;;;;;;;8374381;28;20052;-87
2022/07/24 06:31:26;;;;;;;9.30;3.15;;;;;;;;;;8382062;28;20143;-88
2022/07/24 06:35:32;;;;;;;4.97;2.40;;;;;;;;;;8379959;28;20053;-87
2022/07/24 06:39:36;;;;;;;6.55;2.83;;;;;;;;;;8386327;28;20048;-88
2022/07/24 06:43:40;;;;;;;4.25;2.28;;;;;;;;;;8381414;28;20053;-88
2022/07/24 06:47:46;;;;;;;4.13;2.30;;;;;;;;;;8388184;28;20051;-89
2022/07/24 06:51:54;;;;;;;5.32;2.30;;;;;;;;;;8386353;28;20439;-90
2022/07/24 06:55:58;;;;;;;3.53;1.80;;;;;;;;;;8384462;28;20048;-88
2022/07/24 07:00:01;;;;;;;3.15;1.85;;;;;;;;;;8377905;28;20107;-89
2022/07/24 07:04:13;;;;;;;5.07;1.85;;;;;;;;;;8385790;28;20051;-87
2022/07/24 07:08:17;;;;;;;2.78;1.70;;;;;;;;;;8387749;28;20480;-87
2022/07/24 07:12:21;;;;;;;2.80;1.98;;;;;;;;;;8393617;28;20749;-92
2022/07/24 07:16:24;;;;;;;4.03;2.30;;;;;;;;;;8389860;28;20105;-89
2022/07/24 07:20:31;;;;;;;5.13;2.03;;;;;;;;;;8366938;28;20045;-90
2022/07/24 07:24:34;;;;;;;4.47;2.00;;;;;;;;;;8398613;28;20067;-89
2022/07/24 07:28:37;;;;;;;3.58;2.13;;;;;;;;;;8396693;28;20049;-86
2022/07/24 07:32:43;;;;;;;4.18;2.05;;;;;;;;;;8396312;28;20047;-89
2022/07/24 07:36:50;;;;;;;3.45;2.17;;;;;;;;;;8390686;28;20123;-85
2022/07/24 07:40:54;;;;;;;6.55;3.50;;;;;;;;;;8396332;28;20113;-86
2022/07/24 07:44:57;;;;;;;12.98;3.22;;;;;;;;;;8389678;28;20052;-84
2022/07/24 07:49:03;;;;;;;6.13;3.03;;;;;;;;;;8387395;28;20095;-87
2022/07/24 07:53:08;;;;;;;4.53;2.40;;;;;;;;;;8376315;28;20040;-88
2022/07/24 07:57:11;;;;;;;6.13;2.75;;;;;;;;;;8392375;28;20511;-89
2022/07/24 08:01:15;;;;;;;5.47;2.83;;;;;;;;;;8391230;28;20079;-86
2022/07/24 08:05:18;;;;;;;11.60;2.97;;;;;;;;;;8397300;28;20063;-88
2022/07/24 08:09:23;;;;;;;4.97;2.55;;;;;;;;;;8389382;28;20040;-88
2022/07/24 08:13:27;;;;;;;5.43;2.42;;;;;;;;;;8399659;28;20051;-86
2022/07/24 08:17:30;;;;;;;4.25;1.95;;;;;;;;;;8401041;28;20493;-85
2022/07/24 08:21:55;;;;;;;3.05;2.20;;;;;;;;;;8406322;28;20036;-86
2022/07/24 08:26:01;;;;;;;6.07;2.20;;;;;;;;;;8405193;28;20586;-86
2022/07/24 08:30:07;;;;;;;6.43;2.47;;;;;;;;;;8389341;28;20053;-87
2022/07/24 08:34:10;;;;;;;6.25;2.70;;;;;;;;;;8383861;28;20496;-86
2022/07/24 08:38:15;;;;;;;3.70;2.10;;;;;;;;;;8397430;28;20048;-87
2022/07/24 08:42:20;;;;;;;2.08;1.70;;;;;;;;;;8394251;28;20045;-87
2022/07/24 08:46:24;;;;;;;4.30;2.15;;;;;;;;;;8385936;28;20559;-88
2022/07/24 08:50:28;;;;;;;3.15;2.20;;;;;;;;;;8397839;28;20036;-86
2022/07/24 08:54:31;;;;;;;2.90;1.88;;;;;;;;;;8396991;28;20052;-85
2022/07/24 08:58:41;;;;;;;8.45;2.67;;;;;;;;;;8390445;28;20044;-85
2022/07/24 09:02:46;;;;;;;5.45;1.98;;;;;;;;;;8397461;28;20040;-88
2022/07/24 09:06:58;;;;;;;2.08;1.70;;;;;;;;;;8364358;28;20075;-86
2022/07/24 09:11:04;;;;;;;3.13;1.70;;;;;;;;;;8370436;28;20083;-86
2022/07/24 09:15:15;;;;;;;4.95;2.28;;;;;;;;;;8396494;28;20044;-88
2022/07/24 09:19:18;;;;;;;4.40;2.30;;;;;;;;;;8380504;28;20047;-89
2022/07/24 09:23:22;;;;;;;7.00;6.15;;;;;;;;;;8371584;28;20064;-88
2022/07/24 09:27:25;;;;;;;6.32;2.28;;;;;;;;;;8370753;28;20060;-86
2022/07/24 09:31:30;;;;;;;5.43;2.88;;;;;;;;;;8380982;28;20052;-87
2022/07/24 09:35:37;;;;;;;19.48;7.03;;;;;;;;;;8375967;28;20059;-85
2022/07/24 09:39:42;;;;;;;8.85;6.82;;;;;;;;;;8385240;28;20044;-86
2022/07/24 09:43:58;;;;;;;4.13;2.25;;;;;;;;;;8378952;28;20482;-88
2022/07/24 09:48:15;;;;;;;6.40;3.50;;;;;;;;;;8374522;28;20051;-89
2022/07/24 09:52:19;;;;;;;5.55;3.15;;;;;;;;;;8383903;28;20098;-88
2022/07/24 09:56:24;;;;;;;10.23;7.63;;;;;;;;;;8379307;28;20105;-86
2022/07/24 10:00:30;;;;;;;4.10;1.98;;;;;;;;;;8385272;28;20066;-86
2022/07/24 10:04:39;;;;;;;2.80;1.90;;;;;;;;;;8380044;28;20056;-87
2022/07/24 10:08:45;;;;;;;5.28;2.17;;;;;;;;;;8381643;28;20041;-89
2022/07/24 10:12:50;;;;;;;3.05;2.13;;;;;;;;;;8379635;28;20052;-88
2022/07/24 10:17:07;;;;;;;4.05;2.40;;;;;;;;;;8364897;28;20044;-89
2022/07/24 10:21:18;;;;;;;5.05;1.80;;;;;;;;;;8385351;28;20067;-86
2022/07/24 10:25:26;;;;;;;4.05;2.08;;;;;;;;;;8388931;28;20060;-84
2022/07/24 10:29:36;;;;;;;3.72;2.08;;;;;;;;;;8381334;28;20088;-85
2022/07/24 10:33:52;;;;;;;5.60;2.15;;;;;;;;;;8398924;28;20504;-88
2022/07/24 10:38:11;;;;;;;3.60;2.13;;;;;;;;;;8393761;28;20048;-87
2022/07/24 10:42:19;;;;;;;6.80;2.60;;;;;;;;;;8383994;28;20041;-85
2022/07/24 10:46:24;;;;;;;7.15;2.25;;;;;;;;;;8392486;28;20125;-86
2022/07/24 10:51:02;;;;;;;6.70;2.08;;;;;;;;;;8377675;28;20041;-84
2022/07/24 10:55:35;;;;;;;3.50;1.85;;;;;;;;;;8381639;28;20045;-89
2022/07/24 10:59:41;;;;;;;4.30;2.10;;;;;;;;;;8371482;28;20515;-86
2022/07/24 11:03:52;;;;;;;5.20;2.53;;;;;;;;;;8363550;28;20049;-86
2022/07/24 11:08:29;;;;;;;3.47;2.13;;;;;;;;;;8388514;28;20105;-84
2022/07/24 11:12:43;;;;;;;6.25;2.20;;;;;;;;;;8376648;28;20044;-86
2022/07/24 11:16:49;;;;;;;3.97;2.00;;;;;;;;;;8380903;28;20499;-85
2022/07/24 11:21:01;;;;;;;3.80;2.00;;;;;;;;;;8385808;28;20404;-83
2022/07/24 11:25:11;;;;;;;5.47;1.90;;;;;;;;;;8375164;28;20127;-83
2022/07/24 11:29:19;;;;;;;6.22;1.80;;;;;;;;;;8375229;28;20504;-84
2022/07/24 11:33:35;;;;;;;2.42;1.80;;;;;;;;;;8381708;28;20481;-87
2022/07/24 11:37:47;;;;;;;2.70;1.70;;;;;;;;;;8384357;28;20053;-85
2022/07/24 11:41:55;;;;;;;3.30;1.70;;;;;;;;;;8376603;28;20068;-86
2022/07/24 11:46:02;;;;;;;2.22;1.60;;;;;;;;;;8387457;28;20041;-84
2022/07/24 11:50:21;;;;;;;5.47;1.70;;;;;;;;;;8380683;28;20052;-84
2022/07/24 11:54:29;;;;;;;1.40;1.30;;;;;;;;;;8368267;28;20052;-86
2022/07/24 11:58:40;;;;;;;3.67;1.70;;;;;;;;;;8378174;28;20067;-86
2022/07/24 12:02:49;;;;;;;2.33;1.58;;;;;;;;;;8388797;28;20049;-86
2022/07/24 12:06:53;;;;;;;1.77;1.52;;;;;;;;;;8390061;28;20040;-85
2022/07/24 12:10:57;;;;;;;5.03;1.55;;;;;;;;;;8378049;28;20074;-87
2022/07/24 12:15:08;;;;;;;3.58;1.75;;;;;;;;;;8378455;28;20044;-86
2022/07/24 12:19:18;;;;;;;2.72;1.50;;;;;;;;;;8381861;28;20410;-85
2022/07/24 12:23:22;;;;;;;2.80;1.55;;;;;;;;;;8397451;28;20094;-85
2022/07/24 12:27:42;;;;;;;1.73;1.60;;;;;;;;;;8397526;28;20049;-85
2022/07/24 12:31:45;;;;;;;3.47;1.75;;;;;;;;;;8384303;28;20101;-84
2022/07/24 12:36:00;;;;;;;3.10;1.88;;;;;;;;;;8391409;28;20063;-86
2022/07/24 12:40:04;;;;;;;3.22;1.67;;;;;;;;;;8366774;28;20052;-85
2022/07/24 12:44:08;;;;;;;3.78;1.65;;;;;;;;;;8379895;28;20052;-85
2022/07/24 12:48:20;;;;;;;7.07;1.80;;;;;;;;;;8368435;28;20546;-88
2022/07/24 12:52:28;;;;;;;2.03;1.60;;;;;;;;;;8371459;28;20049;-86
2022/07/24 12:56:35;;;;;;;3.95;1.80;;;;;;;;;;8366066;28;20037;-86
2022/07/24 13:00:39;;;;;;;2.33;1.60;;;;;;;;;;8374922;28;20516;-85
2022/07/24 13:04:46;;;;;;;3.60;1.52;;;;;;;;;;8388450;28;20481;-85
2022/07/24 13:08:53;;;;;;;6.93;2.50;;;;;;;;;;8385462;28;20055;-87
2022/07/24 13:12:58;;;;;;;5.30;2.05;;;;;;;;;;8374551;28;20451;-87
2022/07/24 13:17:14;;;;;;;5.05;1.77;;;;;;;;;;8384919;28;20075;-85
2022/07/24 13:21:19;;;;;;;4.15;1.63;;;;;;;;;;8377588;28;20045;-88
2022/07/24 13:25:25;;;;;;;1.90;1.50;;;;;;;;;;8384644;28;20102;-87
2022/07/24 13:29:29;;;;;;;1.98;1.30;;;;;;;;;;8382640;28;20060;-88
2022/07/24 13:33:34;;;;;;;2.78;1.70;;;;;;;;;;8379559;28;20049;-85
2022/07/24 13:37:42;;;;;;;1.73;1.33;;;;;;;;;;8370585;28;20045;-86
2022/07/24 13:41:52;;;;;;;2.15;1.55;;;;;;;;;;8365136;28;20090;-85
2022/07/24 13:45:56;;;;;;;2.63;1.58;;;;;;;;;;8382442;28;20044;-87
2022/07/24 13:50:00;;;;;;;2.60;1.60;;;;;;;;;;8384670;28;20056;-87
2022/07/24 13:54:03;;;;;;;1.63;1.52;;;;;;;;;;8392875;28;20114;-88
2022/07/24 13:58:10;;;;;;;1.90;1.50;;;;;;;;;;8378983;28;20068;-88
2022/07/24 14:02:16;;;;;;;5.68;1.65;;;;;;;;;;8379135;28;20059;-85
2022/07/24 14:06:20;;;;;;;1.65;1.30;;;;;;;;;;8397325;28;20045;-86
2022/07/24 14:10:24;;;;;;;3.55;1.65;;;;;;;;;;8383684;28;20134;-87
2022/07/24 14:14:34;;;;;;;1.73;1.40;;;;;;;;;;8383642;28;20060;-85
2022/07/24 14:18:47;;;;;;;3.85;1.60;;;;;;;;;;8389116;28;20075;-84
2022/07/24 14:22:54;;;;;;;5.05;1.80;;;;;;;;;;8385522;28;20102;-89
2022/07/24 14:27:00;;;;;;;2.78;1.60;;;;;;;;;;8380816;28;20628;-84
2022/07/24 14:31:08;;;;;;;6.88;1.80;;;;;;;;;;8394090;28;20093;-88
2022/07/24 14:35:13;;;;;;;2.70;1.58;;;;;;;;;;8382529;28;20099;-87
2022/07/24 14:39:17;;;;;;;4.70;1.73;;;;;;;;;;8383037;28;20049;-84
2022/07/24 14:43:20;;;;;;;2.97;1.60;;;;;;;;;;8372259;28;20068;-88
2022/07/24 14:47:27;;;;;;;2.20;1.63;;;;;;;;;;8380285;28;20066;-84
2022/07/24 14:51:31;;;;;;;2.03;1.55;;;;;;;;;;8379815;28;20037;-86
2022/07/24 14:55:35;;;;;;;2.92;1.80;;;;;;;;;;8381006;28;20616;-85
2022/07/24 14:59:38;;;;;;;3.88;1.85;;;;;;;;;;8384968;28;20056;-88
2022/07/24 15:03:44;;;;;;;2.22;1.75;;;;;;;;;;8392957;28;20124;-89
2022/07/24 15:07:47;;;;;;;2.17;1.58;;;;;;;;;;8395621;28;20492;-89
2022/07/24 15:11:50;;;;;;;5.07;1.77;;;;;;;;;;8391993;28;20055;-86
2022/07/24 15:15:55;;;;;;;4.75;1.67;;;;;;;;;;8390589;28;20067;-89
2022/07/24 15:20:00;;;;;;;3.10;1.63;;;;;;;;;;8381288;28;20072;-85
2022/07/24 15:24:03;;;;;;;2.83;1.50;;;;;;;;;;8395152;28;20090;-86
2022/07/24 15:28:07;;;;;;;2.25;1.60;;;;;;;;;;8391666;28;20110;-84
2022/07/24 15:32:10;;;;;;;3.50;1.63;;;;;;;;;;8402668;28;20040;-85
2022/07/24 15:36:16;;;;;;;2.30;1.60;;;;;;;;;;8393632;28;20041;-88
2022/07/24 15:40:20;;;;;;;2.15;1.50;;;;;;;;;;8398424;28;20058;-88
2022/07/24 15:44:24;;;;;;;2.78;1.80;;;;;;;;;;8389142;28;20190;-85
2022/07/24 15:48:28;;;;;;;4.00;1.90;;;;;;;;;;8394966;28;20054;-87
2022/07/24 15:52:34;;;;;;;3.05;1.85;;;;;;;;;;8375832;28;20045;-86
2022/07/24 15:56:37;;;;;;;2.63;1.80;;;;;;;;;;8396914;28;20040;-89
2022/07/24 16:00:41;;;;;;;3.25;1.60;;;;;;;;;;8398330;28;20047;-87
2022/07/24 16:04:44;;;;;;;2.42;1.60;;;;;;;;;;8397034;28;20059;-85
2022/07/24 16:08:50;;;;;;;3.40;1.52;;;;;;;;;;8395131;28;20305;-87
2022/07/24 16:12:54;;;;;;;6.20;1.85;;;;;;;;;;8389459;28;20044;-86
2022/07/24 16:16:58;;;;;;;3.20;1.58;;;;;;;;;;8396140;28;20051;-86
2022/07/24 16:21:01;;;;;;;2.13;1.70;;;;;;;;;;8382801;28;20049;-85
2022/07/24 16:25:08;;;;;;;2.88;1.77;;;;;;;;;;8395917;28;20123;-89
2022/07/24 16:29:12;;;;;;;3.35;1.80;;;;;;;;;;8387579;28;20544;-87
2022/07/24 16:33:15;;;;;;;2.75;1.90;;;;;;;;;;8390556;28;20052;-86
2022/07/24 16:37:20;;;;;;;6.13;1.70;;;;;;;;;;8394749;28;20673;-87
2022/07/24 16:41:25;;;;;;;2.30;1.65;;;;;;;;;;8392502;28;20090;-89
2022/07/24 16:45:28;;;;;;;2.63;1.67;;;;;;;;;;8383484;28;20052;-89
2022/07/24 16:49:32;;;;;;;2.90;1.70;;;;;;;;;;8397491;28;20044;-89
2022/07/24 16:53:36;;;;;;;2.03;1.60;;;;;;;;;;8397467;28;20102;-88
2022/07/24 16:57:41;;;;;;;2.53;1.70;;;;;;;;;;8388619;28;20524;-89
2022/07/24 17:01:44;;;;;;;2.80;1.90;;;;;;;;;;8386399;28;20044;-88
2022/07/24 17:05:47;;;;;;;4.32;1.80;;;;;;;;;;8397104;28;20041;-88
2022/07/24 17:09:57;;;;;;;3.88;1.90;;;;;;;;;;8392647;28;20446;-88
2022/07/24 17:14:12;;;;;;;4.88;1.83;;;;;;;;;;8392940;28;20039;-88
2022/07/24 17:18:16;;;;;;;2.05;1.55;;;;;;;;;;8394508;28;20040;-87
2022/07/24 17:22:22;;;;;;;3.75;1.65;;;;;;;;;;8381134;28;20065;-88
2022/07/24 17:26:25;;;;;;;2.92;2.10;;;;;;;;;;8396441;28;20075;-87
2022/07/24 17:30:31;;;;;;;6.57;3.28;;;;;;;;;;8396315;28;20052;-88
2022/07/24 17:34:35;;;;;;;4.72;2.65;;;;;;;;;;8396544;28;20056;-87
2022/07/24 17:38:38;;;;;;;6.90;2.35;;;;;;;;;;8386273;28;20472;-90
2022/07/24 17:42:42;;;;;;;2.20;1.48;;;;;;;;;;8384788;28;20097;-87
2022/07/24 17:46:47;;;;;;;8.13;2.90;;;;;;;;;;8396883;28;20049;-88
2022/07/24 17:50:50;;;;;;;5.95;2.33;;;;;;;;;;8395362;28;20056;-87
2022/07/24 17:54:53;;;;;;;3.75;2.08;;;;;;;;;;8393539;28;20118;-85
2022/07/24 17:58:56;;;;;;;6.20;2.72;;;;;;;;;;8382009;28;20041;-85
2022/07/24 18:03:12;;;;;;;8.00;2.85;;;;;;;;;;8367032;28;20041;-84
2022/07/24 18:07:17;;;;;;;6.93;3.03;;;;;;;;;;8366919;28;20048;-85
2022/07/24 18:11:59;;;;;;;6.05;2.45;;;;;;;;;;8379006;28;20045;-84
2022/07/24 18:16:21;;;;;;;5.95;2.38;;;;;;;;;;8365150;28;20092;-84
2022/07/24 18:20:39;;;;;;;4.20;2.10;;;;;;;;;;8372553;28;20124;-84
2022/07/24 18:24:44;;;;;;;5.25;2.38;;;;;;;;;;8386699;28;20056;-85
2022/07/24 18:28:48;;;;;;;5.18;2.80;;;;;;;;;;8365593;28;20131;-84
2022/07/24 18:33:00;;;;;;;9.32;3.20;;;;;;;;;;8372279;28;20063;-86
2022/07/24 18:37:22;;;;;;;5.70;2.83;;;;;;;;;;8362774;28;20041;-86
2022/07/24 18:41:32;;;;;;;4.25;2.40;;;;;;;;;;8375565;28;20095;-85
2022/07/24 18:45:42;;;;;;;4.13;2.60;;;;;;;;;;8370113;28;20044;-84
2022/07/24 18:49:46;;;;;;;5.20;2.80;;;;;;;;;;8368899;28;20064;-84
2022/07/24 18:54:09;;;;;;;4.60;2.65;;;;;;;;;;8352078;28;20041;-84
2022/07/24 18:58:18;;;;;;;3.83;2.58;;;;;;;;;;8373905;28;20040;-84
2022/07/24 19:02:22;;;;;;;4.45;2.72;;;;;;;;;;8397699;28;20045;-84
2022/07/24 19:06:26;;;;;;;7.57;3.30;;;;;;;;;;8390776;28;20131;-84
2022/07/24 19:10:31;;;;;;;4.55;2.67;;;;;;;;;;8400648;28;20044;-84
2022/07/24 19:14:35;;;;;;;3.05;2.20;;;;;;;;;;8400672;28;20045;-84
2022/07/24 19:18:40;;;;;;;4.70;2.25;;;;;;;;;;8400403;28;20118;-84
2022/07/24 19:22:44;;;;;;;3.70;2.35;;;;;;;;;;8400239;28;20385;-84
2022/07/24 19:26:49;;;;;;;4.15;2.15;;;;;;;;;;8400120;28;20071;-86
2022/07/24 19:30:53;;;;;;;5.57;2.70;;;;;;;;;;8399935;28;20488;-84
2022/07/24 19:34:57;;;;;;;3.45;2.53;;;;;;;;;;8399913;28;20097;-84
2022/07/24 19:39:03;;;;;;;4.25;2.50;;;;;;;;;;8399806;28;20044;-84
2022/07/24 19:43:08;;;;;;;4.55;2.83;;;;;;;;;;8399884;28;20470;-85
2022/07/24 19:47:11;;;;;;;5.70;2.70;;;;;;;;;;8399759;28;20416;-85
2022/07/24 19:51:15;;;;;;;5.40;2.67;;;;;;;;;;8399303;28;20692;-85
2022/07/24 19:55:18;;;;;;;3.75;2.30;;;;;;;;;;8399368;28;20045;-85
2022/07/24 19:59:23;;;;;;;5.28;2.35;;;;;;;;;;8399240;28;20052;-85
2022/07/24 20:03:27;;;;;;;3.33;2.60;;;;;;;;;;8399171;28;20393;-85
2022/07/24 20:07:30;;;;;;;4.35;2.55;;;;;;;;;;8399079;28;20086;-85
2022/07/24 20:11:34;;;;;;;3.40;2.60;;;;;;;;;;8384800;28;20477;-85
2022/07/24 20:15:40;;;;;;;3.55;2.65;;;;;;;;;;8398877;28;20424;-84
2022/07/24 20:19:43;;;;;;;3.30;2.28;;;;;;;;;;8398708;28;20048;-85
2022/07/24 20:23:47;;;;;;;5.30;2.55;;;;;;;;;;8398701;28;20048;-85
2022/07/24 20:27:50;;;;;;;4.00;2.60;;;;;;;;;;8398691;28;20063;-85
2022/07/24 20:31:55;;;;;;;4.50;2.55;;;;;;;;;;8398276;28;20049;-86
2022/07/24 20:36:00;;;;;;;3.38;2.38;;;;;;;;;;8398602;28;20040;-88
2022/07/24 20:40:07;;;;;;;5.65;2.58;;;;;;;;;;8399399;28;20128;-93
2022/07/24 20:44:11;;;;;;;6.05;2.58;;;;;;;;;;8399697;28;20127;-85
2022/07/24 20:48:16;;;;;;;4.68;2.70;;;;;;;;;;8399195;28;20040;-85
2022/07/24 20:52:20;;;;;;;3.85;2.65;;;;;;;;;;8397033;28;20041;-85
2022/07/24 20:56:23;;;;;;;3.78;2.47;;;;;;;;;;8384604;28;20049;-85
2022/07/24 21:00:26;;;;;;;6.00;2.90;;;;;;;;;;8397580;28;20071;-85
2022/07/24 21:04:31;;;;;;;4.70;2.70;;;;;;;;;;8397095;28;20056;-85
2022/07/24 21:08:34;;;;;;;4.90;2.53;;;;;;;;;;8397503;28;20499;-84
2022/07/24 21:12:38;;;;;;;5.20;3.03;;;;;;;;;;8397527;28;20071;-85
2022/07/24 21:16:42;;;;;;;4.65;2.65;;;;;;;;;;8397368;28;20404;-84
2022/07/24 21:20:50;;;;;;;4.15;2.50;;;;;;;;;;8397502;28;20042;-85
2022/07/24 21:24:53;;;;;;;5.15;2.90;;;;;;;;;;8397522;28;20571;-85
2022/07/24 21:28:56;;;;;;;4.30;2.95;;;;;;;;;;8397068;28;20048;-85
2022/07/24 21:32:59;;;;;;;4.22;2.85;;;;;;;;;;8397572;28;20072;-85
2022/07/24 21:37:04;;;;;;;3.53;2.45;;;;;;;;;;8397042;28;20044;-85
2022/07/24 21:41:07;;;;;;;5.88;2.92;;;;;;;;;;8397073;28;20550;-85
2022/07/24 21:45:11;;;;;;;4.00;2.20;;;;;;;;;;8397266;28;20049;-85
2022/07/24 21:49:14;;;;;;;5.30;2.58;;;;;;;;;;8388019;28;20040;-85
2022/07/24 21:53:19;;;;;;;3.03;2.55;;;;;;;;;;8396779;28;20052;-85
2022/07/24 21:57:22;;;;;;;4.25;3.00;;;;;;;;;;8396631;28;20401;-85
2022/07/24 22:01:26;;;;;;;4.68;2.70;;;;;;;;;;8391302;28;20477;-86
2022/07/24 22:05:29;;;;;;;6.10;3.00;;;;;;;;;;8388141;28;20056;-85
2022/07/24 22:09:34;;;;;;;4.35;2.67;;;;;;;;;;8396206;28;20048;-85
2022/07/24 22:13:37;;;;;;;4.63;3.05;;;;;;;;;;8398461;28;20461;-85
2022/07/24 22:17:40;;;;;;;4.90;2.95;;;;;;;;;;8402636;28;20104;-85
2022/07/24 22:21:43;;;;;;;5.25;2.80;;;;;;;;;;8400647;28;20044;-85
2022/07/24 22:25:48;;;;;;;4.75;3.00;;;;;;;;;;8402377;28;20476;-85
2022/07/24 22:29:50;;;;;;;7.18;3.17;;;;;;;;;;8402458;28;20480;-86
2022/07/24 22:33:54;;;;;;;5.43;3.28;;;;;;;;;;8402162;28;20052;-85
2022/07/24 22:37:59;;;;;;;5.93;3.28;;;;;;;;;;8401878;28;20151;-85
2022/07/24 22:42:03;;;;;;;5.45;2.80;;;;;;;;;;8401984;28;20045;-85
2022/07/24 22:46:07;;;;;;;4.80;2.88;;;;;;;;;;8387816;28;20047;-85
2022/07/24 22:50:11;;;;;;;4.18;3.00;;;;;;;;;;8401779;28;20469;-85
2022/07/24 22:54:14;;;;;;;5.15;2.80;;;;;;;;;;8401335;28;20550;-85
2022/07/24 22:58:19;;;;;;;5.00;2.67;;;;;;;;;;8401127;28;20040;-85
2022/07/24 23:02:22;;;;;;;4.38;2.88;;;;;;;;;;8400978;28;20473;-85
2022/07/24 23:06:24;;;;;;;6.78;3.03;;;;;;;;;;8400813;28;20051;-85
2022/07/24 23:10:27;;;;;;;6.50;3.38;;;;;;;;;;8400841;28;20072;-85
2022/07/24 23:14:31;;;;;;;4.50;2.92;;;;;;;;;;8400761;28;20040;-85
2022/07/24 23:18:34;;;;;;;4.75;3.20;;;;;;;;;;8400798;28;20056;-85
2022/07/24 23:22:36;;;;;;;6.00;3.72;;;;;;;;;;8400323;28;20048;-86
2022/07/24 23:26:39;;;;;;;6.53;3.55;;;;;;;;;;8399598;28;20090;-85
2022/07/24 23:30:44;;;;;;;5.90;3.33;;;;;;;;;;8399894;28;20086;-85
2022/07/24 23:34:46;;;;;;;8.82;3.72;;;;;;;;;;8400083;28;20045;-86
2022/07/24 23:38:49;;;;;;;4.80;3.22;;;;;;;;;;8399690;28;20044;-85
2022/07/24 23:42:52;;;;;;;6.72;3.47;;;;;;;;;;8400400;28;20399;-86
2022/07/24 23:46:56;;;;;;;5.80;3.75;;;;;;;;;;8399682;28;20040;-86
2022/07/24 23:50:59;;;;;;;5.57;3.13;;;;;;;;;;8399767;28;20047;-86
2022/07/24 23:55:02;;;;;;;6.00;3.00;;;;;;;;;;8397773;28;20075;-86
2022/07/24 23:59:04;;;;;;;7.15;3.50;;;;;;;;;;8399166;28;20074;-85
